createdAt,value
2018-12-13T00:01:01.891Z,6.00
2018-12-13T00:03:34.906Z,4.80
2018-12-13T00:06:07.764Z,10.40
2018-12-13T00:08:40.576Z,10.23
2018-12-13T00:11:13.468Z,7.03
2018-12-13T00:13:46.127Z,6.47
2018-12-13T00:16:24.503Z,7.20
2018-12-13T00:18:57.223Z,6.90
2018-12-13T00:21:29.868Z,5.83
2018-12-13T00:24:02.443Z,11.07
2018-12-13T00:26:36.073Z,6.10
2018-12-13T00:29:08.791Z,12.83
2018-12-13T00:31:41.650Z,9.33
2018-12-13T00:34:14.657Z,7.20
2018-12-13T00:36:47.402Z,7.73
2018-12-13T00:39:20.253Z,11.83
2018-12-13T00:41:53.420Z,33.90
2018-12-13T00:44:26.488Z,11.53
2018-12-13T00:46:59.200Z,13.23
2018-12-13T00:49:31.888Z,11.73
2018-12-13T00:52:04.633Z,10.90
2018-12-13T00:54:37.313Z,8.30
2018-12-13T00:57:10.783Z,9.90
2018-12-13T00:59:43.524Z,11.17
2018-12-13T01:02:16.704Z,6.23
2018-12-13T01:04:49.246Z,6.20
2018-12-13T01:07:22.140Z,8.00
2018-12-13T01:09:54.894Z,8.43
2018-12-13T01:12:27.848Z,10.85
2018-12-13T01:15:00.789Z,8.10
2018-12-13T01:17:34.088Z,7.00
2018-12-13T01:20:07.123Z,8.70
2018-12-13T01:22:40.301Z,12.83
2018-12-13T01:25:14.037Z,10.08
2018-12-13T01:27:47.920Z,10.20
2018-12-13T01:30:20.757Z,23.30
2018-12-13T01:32:53.483Z,28.87
2018-12-13T01:35:26.407Z,17.20
2018-12-13T01:37:59.816Z,10.00
2018-12-13T01:40:32.471Z,6.43
2018-12-13T01:43:05.295Z,7.10
2018-12-13T01:45:39.238Z,7.85
2018-12-13T01:48:12.000Z,10.83
2018-12-13T01:50:44.807Z,29.60
2018-12-13T01:53:17.420Z,21.60
2018-12-13T01:55:50.259Z,16.97
2018-12-13T01:58:22.996Z,9.67
2018-12-13T02:00:55.721Z,7.43
2018-12-13T02:03:28.490Z,7.07
2018-12-13T02:06:01.287Z,6.20
2018-12-13T02:08:36.605Z,6.50
2018-12-13T02:11:09.279Z,8.13
2018-12-13T02:13:42.699Z,7.87
2018-12-13T02:16:15.526Z,6.93
2018-12-13T02:18:50.271Z,6.90
2018-12-13T02:21:23.075Z,6.70
2018-12-13T02:23:55.940Z,6.50
2018-12-13T02:26:28.549Z,9.87
2018-12-13T02:29:05.355Z,7.43
2018-12-13T02:31:40.505Z,8.63
2018-12-13T02:34:13.502Z,8.37
2018-12-13T02:36:46.347Z,7.33
2018-12-13T02:39:19.276Z,8.27
2018-12-13T02:41:52.058Z,9.30
2018-12-13T02:44:24.916Z,8.00
2018-12-13T02:46:57.691Z,8.67
2018-12-13T02:49:30.586Z,7.53
2018-12-13T02:52:03.032Z,7.60
2018-12-13T02:54:35.790Z,16.23
2018-12-13T02:57:08.573Z,7.10
2018-12-13T02:59:41.693Z,15.33
2018-12-13T03:02:14.402Z,11.43
2018-12-13T03:04:47.119Z,12.70
2018-12-13T03:07:20.470Z,7.33
2018-12-13T03:09:53.280Z,9.97
2018-12-13T03:12:26.095Z,7.67
2018-12-13T03:14:58.887Z,8.47
2018-12-13T03:17:31.677Z,7.70
2018-12-13T03:20:04.464Z,7.30
2018-12-13T03:22:37.090Z,5.37
2018-12-13T03:25:10.104Z,5.70
2018-12-13T03:27:42.838Z,5.83
2018-12-13T03:30:15.596Z,11.43
2018-12-13T03:32:48.382Z,7.27
2018-12-13T03:35:21.604Z,6.83
2018-12-13T03:37:54.109Z,8.60
2018-12-13T03:40:27.131Z,6.27
2018-12-13T03:42:59.853Z,6.67
2018-12-13T03:45:32.638Z,8.73
2018-12-13T03:48:05.113Z,7.50
2018-12-13T03:50:39.301Z,6.27
2018-12-13T03:53:12.979Z,8.27
2018-12-13T03:55:46.736Z,6.67
2018-12-13T03:58:19.609Z,6.07
2018-12-13T04:00:52.367Z,7.97
2018-12-13T04:03:25.704Z,6.40
2018-12-13T04:05:58.782Z,6.30
2018-12-13T04:08:31.610Z,6.57
2018-12-13T04:11:04.475Z,7.27
2018-12-13T04:13:37.364Z,6.70
2018-12-13T04:16:11.957Z,9.10
2018-12-13T04:18:44.874Z,7.72
2018-12-13T04:21:18.042Z,7.93
2018-12-13T04:23:51.546Z,9.90
2018-12-13T04:26:24.400Z,8.40
2018-12-13T04:28:57.435Z,7.43
2018-12-13T04:31:30.446Z,18.23
2018-12-13T04:34:03.104Z,64.10
2018-12-13T04:36:36.027Z,45.80
2018-12-13T04:39:10.507Z,45.10
2018-12-13T04:41:43.273Z,50.83
2018-12-13T04:44:16.061Z,45.00
2018-12-13T04:46:49.018Z,39.33
2018-12-13T04:49:22.026Z,20.10
2018-12-13T04:51:54.759Z,15.60
2018-12-13T04:54:27.590Z,9.23
2018-12-13T04:57:00.866Z,6.83
2018-12-13T04:59:33.446Z,6.53
2018-12-13T05:02:06.427Z,5.50
2018-12-13T05:04:39.133Z,4.83
2018-12-13T05:07:11.983Z,6.63
2018-12-13T05:09:44.823Z,5.40
2018-12-13T05:12:17.653Z,6.97
2018-12-13T05:14:50.184Z,8.17
2018-12-13T05:17:23.604Z,9.80
2018-12-13T05:19:56.382Z,13.43
2018-12-13T05:22:29.185Z,13.83
2018-12-13T05:25:02.013Z,11.70
2018-12-13T05:27:35.283Z,10.20
2018-12-13T05:30:07.995Z,7.80
2018-12-13T05:32:41.005Z,8.93
2018-12-13T05:35:13.597Z,9.50
2018-12-13T05:37:48.346Z,11.43
2018-12-13T05:40:21.029Z,46.67
2018-12-13T05:42:53.694Z,67.67
2018-12-13T05:45:26.525Z,69.37
2018-12-13T05:47:59.479Z,55.57
2018-12-13T05:50:32.303Z,29.23
2018-12-13T05:53:05.287Z,16.73
2018-12-13T05:55:37.978Z,18.90
2018-12-13T05:58:10.911Z,10.37
2018-12-13T06:00:43.915Z,10.43
2018-12-13T06:03:17.231Z,8.10
2018-12-13T06:05:50.142Z,7.70
2018-12-13T06:08:22.995Z,12.47
2018-12-13T06:10:55.644Z,7.87
2018-12-13T06:13:28.527Z,8.33
2018-12-13T06:16:01.111Z,14.87
2018-12-13T06:18:33.742Z,14.40
2018-12-13T06:21:11.810Z,25.90
2018-12-13T06:23:41.482Z,26.60
2018-12-13T06:26:14.320Z,21.57
2018-12-13T06:28:47.222Z,12.40
2018-12-13T06:31:19.847Z,12.63
2018-12-13T06:33:52.774Z,9.67
2018-12-13T06:36:25.512Z,9.33
2018-12-13T06:38:58.259Z,7.67
2018-12-13T06:41:31.053Z,8.30
2018-12-13T06:44:03.878Z,9.80
2018-12-13T06:46:36.544Z,6.70
2018-12-13T06:49:09.298Z,6.40
2018-12-13T06:51:42.800Z,8.30
2018-12-13T06:54:15.707Z,14.50
2018-12-13T06:56:48.485Z,16.77
2018-12-13T06:59:21.826Z,7.17
2018-12-13T07:01:54.331Z,6.87
2018-12-13T07:04:27.155Z,5.73
2018-12-13T07:06:59.876Z,5.75
2018-12-13T07:09:32.631Z,4.97
2018-12-13T07:12:05.541Z,4.80
2018-12-13T07:14:38.624Z,5.30
2018-12-13T07:17:11.421Z,4.07
2018-12-13T07:19:44.217Z,3.90
2018-12-13T07:22:16.994Z,3.63
2018-12-13T07:24:49.673Z,6.33
2018-12-13T07:27:22.401Z,3.93
2018-12-13T07:29:55.163Z,11.03
2018-12-13T07:32:28.041Z,4.40
2018-12-13T07:35:01.441Z,5.10
2018-12-13T07:37:34.624Z,6.20
2018-12-13T07:40:07.578Z,8.83
2018-12-13T07:49:47.995Z,7.17
2018-12-13T07:52:20.682Z,8.30
2018-12-13T07:54:53.246Z,9.30
2018-12-13T07:57:26.035Z,14.43
2018-12-13T07:59:59.319Z,14.37
2018-12-13T08:02:32.125Z,16.20
2018-12-13T08:05:05.003Z,16.00
2018-12-13T08:07:37.741Z,17.73
2018-12-13T08:10:10.871Z,15.10
2018-12-13T08:12:43.395Z,14.63
2018-12-13T08:16:19.805Z,11.77
2018-12-13T08:18:52.483Z,11.80
2018-12-13T08:21:25.263Z,11.80
2018-12-13T08:23:58.047Z,9.30
2018-12-13T08:26:31.357Z,10.70
2018-12-13T08:29:04.077Z,11.50
2018-12-13T08:31:37.003Z,13.10
2018-12-13T08:34:09.695Z,21.68
2018-12-13T08:36:42.607Z,28.40
2018-12-13T08:39:15.243Z,33.23
2018-12-13T08:41:47.987Z,31.90
2018-12-13T08:44:20.920Z,31.47
2018-12-13T08:46:53.684Z,30.87
2018-12-13T08:49:26.286Z,30.43
2018-12-13T08:51:59.194Z,30.17
2018-12-13T08:54:31.828Z,31.17
2018-12-13T08:57:04.601Z,27.53
2018-12-13T08:59:37.479Z,26.03
2018-12-13T09:02:10.390Z,18.87
2018-12-13T09:04:43.011Z,16.20
2018-12-13T09:07:15.979Z,16.93
2018-12-13T09:09:48.881Z,13.57
2018-12-13T09:12:21.481Z,14.33
2018-12-13T09:14:54.329Z,12.37
2018-12-13T09:17:27.119Z,13.20
2018-12-13T09:19:59.623Z,12.53
2018-12-13T09:22:32.581Z,12.90
2018-12-13T09:25:05.262Z,12.77
2018-12-13T09:27:37.861Z,12.23
2018-12-13T09:30:10.657Z,13.50
2018-12-13T09:32:43.633Z,12.40
2018-12-13T09:35:16.366Z,9.70
2018-12-13T09:37:48.996Z,9.67
2018-12-13T09:40:21.751Z,8.40
2018-12-13T09:42:54.541Z,10.03
2018-12-13T09:45:27.339Z,13.10
2018-12-13T09:48:00.191Z,12.00
2018-12-13T09:50:32.886Z,11.57
2018-12-13T09:53:05.541Z,10.33
2018-12-13T09:55:38.337Z,10.53
2018-12-13T09:58:11.026Z,11.10
2018-12-13T10:00:43.856Z,10.63
2018-12-13T10:03:16.752Z,13.38
2018-12-13T10:05:49.449Z,10.67
2018-12-13T10:08:22.332Z,10.17
2018-12-13T10:10:55.267Z,10.00
2018-12-13T10:13:28.060Z,9.83
2018-12-13T10:16:00.764Z,10.87
2018-12-13T10:18:33.619Z,9.83
2018-12-13T10:21:06.495Z,8.97
2018-12-13T10:23:39.168Z,9.97
2018-12-13T10:26:11.912Z,10.90
2018-12-13T10:28:45.044Z,11.50
2018-12-13T10:31:17.957Z,11.53
2018-12-13T10:33:51.315Z,11.23
2018-12-13T10:36:25.678Z,12.03
2018-12-13T10:38:58.662Z,12.47
2018-12-13T10:41:31.520Z,13.00
2018-12-13T10:44:04.367Z,12.50
2018-12-13T10:46:37.074Z,14.13
2018-12-13T10:49:10.003Z,12.47
2018-12-13T10:51:42.720Z,13.53
2018-12-13T10:54:15.494Z,14.77
2018-12-13T10:56:48.303Z,16.90
2018-12-13T10:59:21.243Z,20.33
2018-12-13T11:01:58.128Z,22.20
2018-12-13T11:04:30.896Z,21.40
2018-12-13T11:07:03.565Z,18.93
2018-12-13T11:09:36.273Z,18.48
2018-12-13T11:12:09.037Z,19.27
2018-12-13T11:14:41.970Z,20.03
2018-12-13T11:17:16.578Z,21.40
2018-12-13T11:19:49.503Z,24.53
2018-12-13T11:22:22.239Z,25.40
2018-12-13T11:24:56.214Z,39.23
2018-12-13T11:27:39.593Z,21.77
2018-12-13T11:30:26.902Z,21.97
2018-12-13T11:32:59.593Z,23.67
2018-12-13T11:35:32.331Z,26.27
2018-12-13T11:38:04.979Z,25.53
2018-12-13T11:40:37.630Z,28.63
2018-12-13T11:43:10.505Z,27.27
2018-12-13T11:45:43.349Z,27.27
2018-12-13T11:48:15.922Z,34.07
2018-12-13T11:50:48.829Z,37.90
2018-12-13T11:53:21.622Z,33.93
2018-12-13T11:55:54.478Z,34.80
2018-12-13T11:58:27.153Z,35.07
2018-12-13T12:00:59.960Z,30.63
2018-12-13T12:03:32.700Z,31.60
2018-12-13T12:06:05.540Z,32.47
2018-12-13T12:08:38.232Z,30.53
2018-12-13T12:11:10.899Z,26.87
2018-12-13T12:13:43.655Z,28.80
2018-12-13T12:16:17.803Z,28.37
2018-12-13T12:18:50.559Z,31.10
2018-12-13T12:21:23.531Z,31.93
2018-12-13T12:23:57.649Z,30.50
2018-12-13T12:26:34.176Z,27.00
2018-12-13T12:29:07.194Z,29.50
2018-12-13T12:31:40.174Z,26.93
2018-12-13T12:34:13.158Z,30.00
2018-12-13T12:36:46.248Z,32.67
2018-12-13T12:39:19.287Z,31.00
2018-12-13T12:41:52.961Z,29.77
2018-12-13T12:44:28.194Z,28.40
2018-12-13T12:47:02.395Z,26.60
2018-12-13T12:49:35.134Z,19.23
2018-12-13T12:52:07.975Z,19.23
2018-12-13T12:54:40.531Z,19.53
2018-12-13T12:57:14.932Z,19.07
2018-12-13T12:59:47.737Z,18.43
2018-12-13T13:02:20.732Z,17.10
2018-12-13T13:04:53.267Z,18.53
2018-12-13T13:07:26.272Z,19.30
2018-12-13T13:09:59.914Z,19.80
2018-12-13T13:12:33.326Z,18.27
2018-12-13T13:15:06.097Z,19.80
2018-12-13T13:17:38.968Z,21.87
2018-12-13T13:20:12.361Z,19.93
2018-12-13T13:22:45.226Z,20.60
2018-12-13T13:25:30.486Z,23.42
2018-12-13T13:28:03.501Z,21.93
2018-12-13T13:30:36.256Z,22.27
2018-12-13T13:33:09.137Z,28.73
2018-12-13T13:35:42.831Z,26.50
2018-12-13T13:38:16.099Z,24.80
2018-12-13T13:40:49.042Z,23.87
2018-12-13T13:43:22.582Z,24.07
2018-12-13T13:45:57.352Z,23.30
2018-12-13T13:48:31.003Z,24.00
2018-12-13T13:51:04.147Z,23.73
2018-12-13T13:53:37.500Z,35.00
2018-12-13T13:56:10.757Z,39.03
2018-12-13T13:58:43.748Z,41.00
2018-12-13T14:01:19.087Z,34.63
2018-12-13T14:03:52.283Z,34.30
2018-12-13T14:06:30.422Z,33.40
2018-12-13T14:09:05.389Z,30.95
2018-12-13T14:11:40.311Z,28.33
2018-12-13T14:14:13.015Z,20.87
2018-12-13T14:16:46.730Z,25.90
2018-12-13T14:19:20.607Z,21.20
2018-12-13T14:21:53.869Z,21.67
2018-12-13T14:24:26.604Z,30.63
2018-12-13T14:26:59.645Z,20.10
2018-12-13T14:29:33.837Z,18.53
2018-12-13T14:32:07.768Z,17.73
2018-12-13T14:34:40.414Z,13.50
2018-12-13T14:40:07.021Z,7.90
2018-12-13T14:42:41.102Z,12.60
2018-12-13T14:45:16.047Z,11.50
2018-12-13T14:47:49.044Z,15.60
2018-12-13T14:50:22.176Z,13.13
2018-12-13T14:52:55.105Z,13.90
2018-12-13T14:55:34.154Z,13.93
2018-12-13T14:58:07.100Z,12.90
2018-12-13T15:00:40.299Z,17.07
2018-12-13T15:03:13.854Z,11.13
2018-12-13T15:05:49.320Z,10.98
2018-12-13T15:08:22.292Z,9.47
2018-12-13T15:10:57.044Z,8.30
2018-12-13T15:13:29.993Z,7.97
2018-12-13T15:16:02.843Z,8.20
2018-12-13T15:18:35.693Z,5.67
2018-12-13T15:21:08.696Z,4.77
2018-12-13T15:23:41.749Z,4.60
2018-12-13T15:26:16.967Z,5.10
2018-12-13T15:28:49.425Z,5.90
2018-12-13T15:31:22.201Z,5.70
2018-12-13T15:34:03.642Z,5.30
2018-12-13T15:36:37.196Z,4.43
2018-12-13T15:39:12.226Z,5.50
2018-12-13T15:41:45.574Z,6.37
2018-12-13T15:44:18.441Z,8.40
2018-12-13T15:46:52.411Z,7.33
2018-12-13T15:49:26.092Z,7.37
2018-12-13T15:52:00.731Z,6.80
2018-12-13T15:54:33.703Z,7.83
2018-12-13T15:59:52.082Z,4.83
2018-12-13T16:02:25.173Z,5.40
2018-12-13T16:04:59.280Z,5.90
2018-12-13T16:07:32.317Z,4.90
2018-12-13T16:10:05.200Z,4.97
2018-12-13T16:12:38.849Z,3.80
2018-12-13T16:15:18.380Z,3.70
2018-12-13T16:17:52.613Z,6.60
2018-12-13T16:20:27.059Z,6.00
2018-12-13T16:23:00.089Z,4.60
2018-12-13T16:25:33.551Z,3.57
2018-12-13T16:28:06.393Z,4.33
2018-12-13T16:30:39.667Z,4.63
2018-12-13T16:33:14.086Z,4.27
2018-12-13T16:35:53.147Z,5.00
2018-12-13T16:38:27.707Z,4.80
2018-12-13T16:41:01.999Z,5.43
2018-12-13T16:43:34.881Z,5.33
2018-12-13T16:46:08.877Z,5.70
2018-12-13T16:48:41.805Z,5.60
2018-12-13T16:51:14.900Z,4.40
2018-12-13T16:53:47.710Z,5.70
2018-12-13T16:56:21.657Z,5.50
2018-12-13T16:58:55.027Z,4.47
2018-12-13T17:01:30.577Z,4.60
2018-12-13T17:04:03.543Z,5.20
2018-12-13T17:06:40.420Z,5.00
2018-12-13T17:09:13.241Z,4.93
2018-12-13T17:11:48.204Z,5.10
2018-12-13T17:14:21.458Z,6.00
2018-12-13T17:16:54.420Z,5.80
2018-12-13T17:19:29.295Z,4.40
2018-12-13T17:22:05.846Z,4.40
2018-12-13T17:24:39.278Z,4.83
2018-12-13T17:27:13.331Z,4.13
2018-12-13T17:29:49.185Z,4.50
2018-12-13T17:32:26.006Z,3.80
2018-12-13T17:34:58.753Z,3.83
2018-12-13T17:37:31.786Z,3.30
2018-12-13T17:40:04.668Z,3.17
2018-12-13T17:42:38.303Z,4.10
2018-12-13T17:45:12.112Z,3.60
2018-12-13T17:47:44.753Z,4.33
2018-12-13T17:50:17.498Z,9.20
2018-12-13T17:52:53.924Z,3.70
2018-12-13T17:55:29.394Z,6.73
2018-12-13T17:58:03.069Z,5.67
2018-12-13T18:00:39.855Z,3.83
2018-12-13T18:03:12.603Z,5.60
2018-12-13T18:05:45.463Z,10.70
2018-12-13T18:08:18.272Z,9.83
2018-12-13T18:10:51.079Z,4.00
2018-12-13T18:13:24.001Z,8.83
2018-12-13T18:15:56.871Z,4.57
2018-12-13T18:18:30.355Z,3.10
2018-12-13T18:21:04.291Z,3.50
2018-12-13T18:23:36.881Z,9.13
2018-12-13T18:26:09.744Z,4.70
2018-12-13T18:28:42.495Z,3.40
2018-12-13T18:31:15.136Z,4.03
2018-12-13T18:33:47.974Z,3.40
2018-12-13T18:36:24.547Z,3.50
2018-12-13T18:38:58.573Z,3.80
2018-12-13T18:41:31.433Z,3.77
2018-12-13T18:44:05.042Z,3.50
2018-12-13T18:46:38.056Z,3.47
2018-12-13T18:49:10.931Z,3.17
2018-12-13T18:51:44.374Z,3.50
2018-12-13T18:54:17.197Z,4.60
2018-12-13T18:56:49.808Z,4.60
2018-12-13T18:59:23.194Z,5.30
2018-12-13T19:01:59.862Z,4.45
2018-12-13T19:04:33.869Z,3.93
2018-12-13T19:07:06.692Z,4.23
2018-12-13T19:09:40.240Z,4.20
2018-12-13T19:12:13.160Z,4.23
2018-12-13T19:14:46.455Z,3.90
2018-12-13T19:17:19.197Z,4.57
2018-12-13T19:19:53.115Z,4.07
2018-12-13T19:22:26.252Z,4.50
2018-12-13T19:24:59.165Z,4.17
2018-12-13T19:27:31.787Z,4.10
2018-12-13T19:30:06.964Z,4.67
2018-12-13T19:32:42.447Z,4.33
2018-12-13T19:35:19.371Z,4.70
2018-12-13T19:37:50.692Z,4.27
2018-12-13T19:40:24.410Z,3.90
2018-12-13T19:42:56.979Z,4.23
2018-12-13T19:45:31.542Z,4.07
2018-12-13T19:48:04.521Z,5.90
2018-12-13T19:50:37.774Z,4.10
2018-12-13T19:53:10.644Z,4.23
2018-12-13T19:55:43.869Z,5.20
2018-12-13T19:58:16.447Z,4.30
2018-12-13T20:00:52.568Z,4.40
2018-12-13T20:03:25.359Z,4.47
2018-12-13T20:05:58.132Z,4.60
2018-12-13T20:08:31.204Z,4.43
2018-12-13T20:11:04.229Z,4.07
2018-12-13T20:13:37.258Z,3.73
2018-12-13T20:16:11.647Z,4.30
2018-12-13T20:18:44.434Z,4.70
2018-12-13T20:21:17.391Z,5.13
2018-12-13T20:23:50.142Z,4.73
2018-12-13T20:26:24.549Z,4.47
2018-12-13T20:28:57.447Z,5.35
2018-12-13T20:31:30.995Z,5.40
2018-12-13T20:34:03.555Z,6.40
2018-12-13T20:36:36.264Z,6.80
2018-12-13T20:39:11.047Z,6.17
2018-12-13T20:41:44.422Z,6.63
2018-12-13T20:44:17.292Z,6.97
2018-12-13T20:46:50.144Z,7.60
2018-12-13T20:49:23.581Z,6.77
2018-12-13T20:51:57.031Z,5.87
2018-12-13T20:54:29.889Z,5.80
2018-12-13T20:57:02.733Z,5.30
2018-12-13T20:59:35.935Z,5.00
2018-12-13T21:02:08.846Z,6.00
2018-12-13T21:04:41.893Z,6.60
2018-12-13T21:07:18.976Z,6.90
2018-12-13T21:09:52.390Z,7.00
2018-12-13T21:12:45.175Z,6.57
2018-12-13T21:15:20.216Z,6.03
2018-12-13T21:17:53.100Z,6.63
2018-12-13T21:20:26.004Z,7.07
2018-12-13T21:22:59.729Z,5.90
2018-12-13T21:25:34.410Z,8.77
2018-12-13T21:28:07.991Z,7.93
2018-12-13T21:30:41.079Z,7.87
2018-12-13T21:33:13.890Z,7.93
2018-12-13T21:35:46.599Z,8.48
2018-12-13T21:38:19.683Z,8.80
2018-12-13T21:40:52.461Z,7.73
2018-12-13T21:43:25.244Z,8.80
2018-12-13T21:45:58.378Z,8.63
2018-12-13T21:48:31.115Z,8.50
2018-12-13T21:51:03.990Z,9.13
2018-12-13T21:53:36.703Z,9.70
2018-12-13T21:56:09.440Z,9.90
2018-12-13T21:58:43.132Z,9.27
2018-12-13T22:01:15.935Z,8.90
2018-12-13T22:03:49.093Z,9.13
2018-12-13T22:06:24.140Z,10.00
2018-12-13T22:08:57.091Z,9.33
2018-12-13T22:11:29.887Z,9.40
2018-12-13T22:14:02.655Z,9.73
2018-12-13T22:16:36.443Z,10.60
2018-12-13T22:19:09.410Z,11.22
2018-12-13T22:21:42.129Z,12.00
2018-12-13T22:24:15.192Z,13.40
2018-12-13T22:26:49.060Z,12.77
2018-12-13T22:29:22.397Z,13.90
2018-12-13T22:31:55.510Z,13.00
2018-12-13T22:34:30.466Z,15.83
2018-12-13T22:37:27.760Z,15.00
2018-12-13T22:40:01.810Z,17.13
2018-12-13T22:42:35.333Z,16.50
2018-12-13T22:45:12.252Z,18.40
2018-12-13T22:47:45.693Z,18.60
2018-12-13T22:50:18.609Z,18.10
2018-12-13T22:52:53.912Z,19.57
2018-12-13T22:55:28.616Z,20.00
2018-12-13T22:58:01.196Z,20.00
2018-12-13T23:00:34.190Z,20.00
2018-12-13T23:03:08.707Z,19.67
2018-12-13T23:05:41.763Z,20.17
2018-12-13T23:08:14.862Z,20.80
2018-12-13T23:10:47.866Z,20.23
2018-12-13T23:13:21.935Z,22.40
2018-12-13T23:15:56.368Z,22.17
2018-12-13T23:18:29.278Z,21.80
2018-12-13T23:21:03.097Z,22.20
2018-12-13T23:23:37.185Z,22.63
2018-12-13T23:26:10.024Z,20.73
2018-12-13T23:28:42.982Z,21.97
2018-12-13T23:31:16.927Z,22.07
2018-12-13T23:33:49.656Z,23.30
2018-12-13T23:36:24.229Z,23.70
2018-12-13T23:38:57.867Z,21.80
2018-12-13T23:41:30.627Z,26.70
2018-12-13T23:44:02.868Z,26.57
2018-12-13T23:46:35.843Z,24.67
2018-12-13T23:49:08.561Z,24.60
2018-12-13T23:51:41.445Z,22.07
2018-12-13T23:54:14.305Z,22.23
2018-12-13T23:56:47.138Z,23.97
2018-12-13T23:59:19.684Z,27.53
